SWA2574 KMDW-KPVD
Flight info
| Callsign | SWA2574 |
|---|---|
| Flight time | N/A |
| Altitude | 37000 |
| Route | LEWKE GIJ EVOTE NELLS KEEHO JHW Q82 MEMMS WIPOR4 |
| Aircraft | B738/M-SDE2E3GHIJ4J7P2RWZ/LB1D1 |
Departure
| Time | 2026-05-07 11:31 |
|---|---|
| Airport | Chicago Midway International Airport (KMDW) |
Arrival
| Time | N/A |
|---|---|
| Airport | Rhode Island T. F. Green International Airport (KPVD) |
| Time | Latitude | Longitude | Altitude | Speed | Heading |
|---|---|---|---|---|---|
| 2026-05-07 11:10 | 41.78539 | -87.74369 | 613 ft | 0 kts | 133° |
| 2026-05-07 11:20 | 41.78542 | -87.74374 | 613 ft | 2 kts | 133° |
| 2026-05-07 11:20 | 41.78554 | -87.74387 | 613 ft | 2 kts | 153° |
| 2026-05-07 11:21 | 41.78568 | -87.74394 | 613 ft | 2 kts | 169° |
| 2026-05-07 11:21 | 41.78583 | -87.74395 | 613 ft | 2 kts | 187° |
| 2026-05-07 11:21 | 41.78598 | -87.74390 | 612 ft | 2 kts | 205° |
| 2026-05-07 11:21 | 41.78608 | -87.74380 | 612 ft | 0 kts | 220° |
| 2026-05-07 11:22 | 41.78613 | -87.74374 | 612 ft | 0 kts | 223° |
| 2026-05-07 11:22 | 41.78614 | -87.74374 | 612 ft | 0 kts | 223° |
| 2026-05-07 11:26 | 41.78603 | -87.74387 | 612 ft | 3 kts | 223° |
| 2026-05-07 11:26 | 41.78569 | -87.74430 | 613 ft | 10 kts | 223° |
| 2026-05-07 11:27 | 41.78503 | -87.74513 | 613 ft | 14 kts | 223° |
| 2026-05-07 11:27 | 41.78493 | -87.74624 | 613 ft | 16 kts | 309° |
| 2026-05-07 11:27 | 41.78572 | -87.74737 | 613 ft | 16 kts | 314° |
| 2026-05-07 11:27 | 41.78681 | -87.74777 | 613 ft | 17 kts | 14° |
| 2026-05-07 11:28 | 41.78781 | -87.74678 | 612 ft | 18 kts | 43° |
| 2026-05-07 11:28 | 41.78875 | -87.74558 | 612 ft | 19 kts | 43° |
| 2026-05-07 11:28 | 41.78971 | -87.74438 | 612 ft | 18 kts | 43° |
| 2026-05-07 11:28 | 41.79057 | -87.74326 | 611 ft | 12 kts | 44° |
| 2026-05-07 11:29 | 41.79091 | -87.74284 | 611 ft | 0 kts | 41° |
| 2026-05-07 11:29 | 41.79106 | -87.74268 | 611 ft | 5 kts | 28° |
| 2026-05-07 11:29 | 41.79164 | -87.74275 | 611 ft | 11 kts | 325° |
| 2026-05-07 11:30 | 41.79172 | -87.74339 | 611 ft | 6 kts | 232° |
| 2026-05-07 11:30 | 41.79163 | -87.74352 | 611 ft | 0 kts | 224° |
| 2026-05-07 11:30 | 41.79010 | -87.74544 | 612 ft | 69 kts | 223° |
| 2026-05-07 11:30 | 41.78473 | -87.75225 | 614 ft | 140 kts | 223° |
| 2026-05-07 11:31 | 41.77655 | -87.76244 | 1004 ft | 167 kts | 224° |
| 2026-05-07 11:31 | 41.76828 | -87.77264 | 1897 ft | 163 kts | 226° |
| 2026-05-07 11:31 | 41.75994 | -87.78322 | 2542 ft | 172 kts | 226° |
| 2026-05-07 11:31 | 41.74960 | -87.79240 | 2968 ft | 193 kts | 197° |
| 2026-05-07 11:32 | 41.72526 | -87.77511 | 3780 ft | 237 kts | 110° |
| 2026-05-07 11:32 | 41.72391 | -87.75296 | 4271 ft | 248 kts | 76° |
| 2026-05-07 11:32 | 41.72823 | -87.73012 | 4909 ft | 260 kts | 72° |
| 2026-05-07 11:33 | 41.73190 | -87.70597 | 5514 ft | 275 kts | 78° |
| 2026-05-07 11:33 | 41.73396 | -87.68007 | 6236 ft | 285 kts | 82° |
| 2026-05-07 11:33 | 41.73520 | -87.65317 | 6999 ft | 292 kts | 83° |
| 2026-05-07 11:33 | 41.73626 | -87.62611 | 7833 ft | 296 kts | 83° |
| 2026-05-07 11:34 | 41.73740 | -87.59856 | 8603 ft | 302 kts | 83° |
| 2026-05-07 11:34 | 41.73866 | -87.57037 | 9392 ft | 306 kts | 82° |
| 2026-05-07 11:34 | 41.74001 | -87.54182 | 10156 ft | 311 kts | 83° |
| 2026-05-07 11:34 | 41.74143 | -87.51257 | 10649 ft | 325 kts | 83° |
| 2026-05-07 11:35 | 41.74294 | -87.48177 | 11097 ft | 340 kts | 83° |
| 2026-05-07 11:35 | 41.74452 | -87.44917 | 11463 ft | 358 kts | 84° |
| 2026-05-07 11:35 | 41.74612 | -87.41553 | 11876 ft | 374 kts | 84° |
| 2026-05-07 11:35 | 41.74779 | -87.37988 | 12273 ft | 389 kts | 84° |
| 2026-05-07 11:36 | 41.74950 | -87.34290 | 12593 ft | 406 kts | 85° |
| 2026-05-07 11:36 | 41.75126 | -87.30450 | 12968 ft | 420 kts | 85° |
| 2026-05-07 11:36 | 41.75307 | -87.26476 | 13570 ft | 428 kts | 86° |
| 2026-05-07 11:36 | 41.75487 | -87.22480 | 14210 ft | 434 kts | 86° |
| 2026-05-07 11:37 | 41.75667 | -87.18464 | 14909 ft | 438 kts | 86° |
| 2026-05-07 11:37 | 41.75847 | -87.14404 | 15593 ft | 443 kts | 86° |
| 2026-05-07 11:37 | 41.76029 | -87.10274 | 16239 ft | 448 kts | 86° |
| 2026-05-07 11:37 | 41.76212 | -87.06083 | 16937 ft | 452 kts | 86° |
| 2026-05-07 11:38 | 41.76349 | -87.01843 | 17562 ft | 457 kts | 88° |
| 2026-05-07 11:38 | 41.76420 | -86.97606 | 18197 ft | 462 kts | 89° |
| 2026-05-07 11:38 | 41.76455 | -86.93287 | 18800 ft | 467 kts | 89° |
| 2026-05-07 11:38 | 41.76476 | -86.88917 | 19448 ft | 471 kts | 90° |
| 2026-05-07 11:39 | 41.76498 | -86.84518 | 20015 ft | 476 kts | 90° |
| 2026-05-07 11:39 | 41.76523 | -86.80054 | 20555 ft | 481 kts | 90° |
| 2026-05-07 11:39 | 41.76553 | -86.75544 | 21063 ft | 487 kts | 90° |
| 2026-05-07 11:39 | 41.76585 | -86.71040 | 21599 ft | 491 kts | 90° |
| 2026-05-07 11:40 | 41.76619 | -86.66440 | 22154 ft | 495 kts | 89° |
| 2026-05-07 11:40 | 41.76655 | -86.61796 | 22644 ft | 500 kts | 90° |
| 2026-05-07 11:40 | 41.76691 | -86.57159 | 23118 ft | 505 kts | 89° |
| 2026-05-07 11:40 | 41.76726 | -86.52429 | 23575 ft | 510 kts | 90° |
| 2026-05-07 11:41 | 41.76760 | -86.47658 | 24140 ft | 513 kts | 90° |
| 2026-05-07 11:41 | 41.76792 | -86.42897 | 24494 ft | 519 kts | 90° |
| 2026-05-07 11:41 | 41.76835 | -86.38026 | 24900 ft | 524 kts | 89° |
| 2026-05-07 11:41 | 41.77011 | -86.33078 | 25301 ft | 529 kts | 86° |
| 2026-05-07 11:42 | 41.77440 | -86.28168 | 25691 ft | 533 kts | 82° |
| 2026-05-07 11:42 | 41.78090 | -86.23247 | 26062 ft | 537 kts | 78° |
| 2026-05-07 11:42 | 41.78884 | -86.18305 | 26430 ft | 541 kts | 76° |
| 2026-05-07 11:42 | 41.79747 | -86.13455 | 26986 ft | 540 kts | 76° |
| 2026-05-07 11:43 | 41.80662 | -86.08491 | 27411 ft | 542 kts | 75° |
| 2026-05-07 11:43 | 41.81568 | -86.03602 | 27838 ft | 543 kts | 76° |
| 2026-05-07 11:43 | 41.82463 | -85.98695 | 28277 ft | 544 kts | 76° |
| 2026-05-07 11:43 | 41.83350 | -85.93731 | 28675 ft | 545 kts | 76° |
| 2026-05-07 11:44 | 41.84216 | -85.88777 | 29016 ft | 548 kts | 76° |
| 2026-05-07 11:44 | 41.85082 | -85.83735 | 29383 ft | 550 kts | 77° |
| 2026-05-07 11:44 | 41.85927 | -85.78745 | 29731 ft | 552 kts | 77° |
| 2026-05-07 11:44 | 41.86777 | -85.73675 | 30147 ft | 552 kts | 77° |
| 2026-05-07 11:45 | 41.87614 | -85.68649 | 30472 ft | 553 kts | 77° |
| 2026-05-07 11:45 | 41.88451 | -85.63600 | 30776 ft | 554 kts | 77° |
| 2026-05-07 11:45 | 41.89284 | -85.58565 | 31137 ft | 553 kts | 77° |
| 2026-05-07 11:45 | 41.90117 | -85.53513 | 31485 ft | 553 kts | 77° |
| 2026-05-07 11:46 | 41.90948 | -85.48468 | 31809 ft | 553 kts | 77° |
| 2026-05-07 11:46 | 41.91766 | -85.43490 | 32156 ft | 553 kts | 77° |
| 2026-05-07 11:46 | 41.92593 | -85.38435 | 32531 ft | 551 kts | 76° |
| 2026-05-07 11:46 | 41.93409 | -85.33442 | 32859 ft | 550 kts | 77° |
| 2026-05-07 11:47 | 41.94194 | -85.28344 | 33135 ft | 551 kts | 79° |
| 2026-05-07 11:47 | 41.94795 | -85.23275 | 33387 ft | 551 kts | 83° |
| 2026-05-07 11:47 | 41.95164 | -85.18111 | 33677 ft | 551 kts | 87° |
| 2026-05-07 11:47 | 41.95319 | -85.13022 | 34008 ft | 549 kts | 90° |
| 2026-05-07 11:48 | 41.95341 | -85.07918 | 34350 ft | 547 kts | 91° |
| 2026-05-07 11:48 | 41.95293 | -85.02760 | 34574 ft | 548 kts | 92° |
| 2026-05-07 11:48 | 41.95216 | -84.97633 | 34878 ft | 547 kts | 92° |
| 2026-05-07 11:48 | 41.95134 | -84.92532 | 35147 ft | 547 kts | 92° |
| 2026-05-07 11:49 | 41.95059 | -84.87448 | 35383 ft | 547 kts | 92° |
| 2026-05-07 11:49 | 41.94996 | -84.82397 | 35689 ft | 546 kts | 92° |
| 2026-05-07 11:49 | 41.94943 | -84.77279 | 35888 ft | 547 kts | 92° |
| 2026-05-07 11:49 | 41.94898 | -84.72222 | 36131 ft | 547 kts | 91° |
| 2026-05-07 11:50 | 41.94857 | -84.67097 | 36343 ft | 547 kts | 92° |
| 2026-05-07 11:50 | 41.94820 | -84.61945 | 36577 ft | 547 kts | 92° |
| 2026-05-07 11:50 | 41.94783 | -84.56908 | 36810 ft | 546 kts | 91° |
| 2026-05-07 11:50 | 41.94746 | -84.51751 | 36978 ft | 547 kts | 91° |
| 2026-05-07 11:51 | 41.94706 | -84.46649 | 36994 ft | 549 kts | 91° |
| 2026-05-07 11:51 | 41.94620 | -84.36438 | 36994 ft | 546 kts | 91° |
| 2026-05-07 11:52 | 41.94523 | -84.26260 | 36987 ft | 546 kts | 92° |
| 2026-05-07 11:52 | 41.94412 | -84.16057 | 36979 ft | 546 kts | 92° |
| 2026-05-07 11:53 | 41.94294 | -84.05886 | 36987 ft | 545 kts | 92° |
| 2026-05-07 11:53 | 41.94169 | -83.95720 | 36993 ft | 546 kts | 92° |
| 2026-05-07 11:54 | 41.94033 | -83.85495 | 36996 ft | 546 kts | 92° |
| 2026-05-07 11:54 | 41.93890 | -83.75331 | 36996 ft | 546 kts | 92° |
| 2026-05-07 11:55 | 41.93735 | -83.65090 | 36999 ft | 548 kts | 92° |
| 2026-05-07 11:55 | 41.93574 | -83.54916 | 36988 ft | 548 kts | 92° |
| 2026-05-07 11:56 | 41.93419 | -83.44704 | 36992 ft | 547 kts | 92° |
| 2026-05-07 11:56 | 41.93359 | -83.34570 | 36991 ft | 548 kts | 92° |
| 2026-05-07 11:57 | 41.93336 | -83.24313 | 36996 ft | 548 kts | 92° |
| 2026-05-07 11:57 | 41.93303 | -83.14045 | 36994 ft | 550 kts | 92° |
| 2026-05-07 11:58 | 41.93250 | -83.03876 | 36994 ft | 548 kts | 92° |
| 2026-05-07 11:58 | 41.93177 | -82.93597 | 36996 ft | 549 kts | 92° |
| 2026-05-07 11:59 | 41.93090 | -82.83355 | 36993 ft | 550 kts | 92° |
| 2026-05-07 11:59 | 41.92992 | -82.73140 | 36986 ft | 549 kts | 92° |
| 2026-05-07 12:00 | 41.92886 | -82.62923 | 36991 ft | 550 kts | 92° |
| 2026-05-07 12:00 | 41.92771 | -82.52679 | 36980 ft | 549 kts | 92° |
| 2026-05-07 12:01 | 41.92649 | -82.42476 | 36984 ft | 549 kts | 92° |
| 2026-05-07 12:01 | 41.92514 | -82.32177 | 36971 ft | 550 kts | 93° |
| 2026-05-07 12:02 | 41.92371 | -82.21916 | 36971 ft | 550 kts | 93° |
| 2026-05-07 12:02 | 41.92222 | -82.11703 | 36985 ft | 550 kts | 93° |
| 2026-05-07 12:03 | 41.92064 | -82.01450 | 36989 ft | 551 kts | 93° |
| 2026-05-07 12:03 | 41.91897 | -81.91173 | 37004 ft | 551 kts | 93° |
| 2026-05-07 12:04 | 41.92079 | -81.80939 | 36995 ft | 552 kts | 86° |
| 2026-05-07 12:04 | 41.92926 | -81.70703 | 37000 ft | 555 kts | 82° |
| 2026-05-07 12:05 | 41.94087 | -81.60471 | 36988 ft | 555 kts | 81° |
| 2026-05-07 12:05 | 41.95313 | -81.50279 | 36991 ft | 554 kts | 81° |
| 2026-05-07 12:06 | 41.96494 | -81.40047 | 36988 ft | 554 kts | 81° |
| 2026-05-07 12:06 | 41.97623 | -81.29823 | 36989 ft | 555 kts | 82° |
| 2026-05-07 12:07 | 41.98722 | -81.19592 | 36987 ft | 555 kts | 82° |
| 2026-05-07 12:07 | 41.99807 | -81.09322 | 36977 ft | 556 kts | 83° |
| 2026-05-07 12:08 | 42.00880 | -80.99074 | 36959 ft | 552 kts | 82° |
| 2026-05-07 12:08 | 42.01939 | -80.88870 | 36961 ft | 553 kts | 82° |
| 2026-05-07 12:09 | 42.02991 | -80.78666 | 36957 ft | 554 kts | 82° |
| 2026-05-07 12:09 | 42.04033 | -80.68466 | 36964 ft | 555 kts | 82° |
| 2026-05-07 12:10 | 42.05076 | -80.58208 | 36976 ft | 553 kts | 83° |
| 2026-05-07 12:10 | 42.06105 | -80.47995 | 36986 ft | 554 kts | 83° |
| 2026-05-07 12:11 | 42.07129 | -80.37713 | 36972 ft | 555 kts | 83° |
| 2026-05-07 12:11 | 42.08147 | -80.27358 | 36983 ft | 554 kts | 83° |
| 2026-05-07 12:12 | 42.09145 | -80.17105 | 36963 ft | 555 kts | 83° |
| 2026-05-07 12:12 | 42.10141 | -80.06807 | 36964 ft | 556 kts | 84° |
| 2026-05-07 12:13 | 42.11111 | -79.96704 | 36964 ft | 556 kts | 83° |
| 2026-05-07 12:13 | 42.12088 | -79.86433 | 36964 ft | 555 kts | 84° |
| 2026-05-07 12:14 | 42.13058 | -79.76125 | 36966 ft | 557 kts | 83° |
| 2026-05-07 12:14 | 42.14022 | -79.65787 | 36960 ft | 556 kts | 84° |
| 2026-05-07 12:15 | 42.14978 | -79.55416 | 36948 ft | 555 kts | 83° |
| 2026-05-07 12:15 | 42.15925 | -79.45063 | 36961 ft | 555 kts | 83° |
| 2026-05-07 12:16 | 42.16855 | -79.34751 | 36958 ft | 556 kts | 84° |
| 2026-05-07 12:16 | 42.17787 | -79.24335 | 36960 ft | 555 kts | 84° |
| 2026-05-07 12:17 | 42.18703 | -79.13991 | 36969 ft | 557 kts | 84° |
| 2026-05-07 12:17 | 42.19746 | -79.03677 | 36969 ft | 555 kts | 81° |
| 2026-05-07 12:18 | 42.21088 | -78.93384 | 36958 ft | 556 kts | 80° |
| 2026-05-07 12:18 | 42.22488 | -78.83170 | 36950 ft | 555 kts | 80° |
| 2026-05-07 12:19 | 42.23856 | -78.72868 | 36933 ft | 556 kts | 80° |
| 2026-05-07 12:19 | 42.25171 | -78.62574 | 36956 ft | 558 kts | 81° |
| 2026-05-07 12:20 | 42.26454 | -78.52250 | 36956 ft | 557 kts | 81° |
| 2026-05-07 12:20 | 42.27719 | -78.41959 | 36963 ft | 557 kts | 81° |
| 2026-05-07 12:21 | 42.28983 | -78.31618 | 36959 ft | 557 kts | 82° |
| 2026-05-07 12:21 | 42.30240 | -78.21232 | 36952 ft | 557 kts | 82° |
| 2026-05-07 12:22 | 42.31486 | -78.10897 | 36942 ft | 558 kts | 82° |
| 2026-05-07 12:22 | 42.32719 | -78.00589 | 36960 ft | 559 kts | 82° |
| 2026-05-07 12:23 | 42.33950 | -77.90223 | 36942 ft | 557 kts | 82° |
| 2026-05-07 12:23 | 42.35130 | -77.80203 | 36940 ft | 559 kts | 82° |